sensor_id;sensor_type;location;lat;lon;timestamp;P1;durP1;ratioP1;P2;durP2;ratioP2
3149;SDS011;32503;47.748;8.960;2023-11-18T00:00:47;8.00;;;7.00;;
3149;SDS011;32503;47.748;8.960;2023-11-18T00:03:14;6.23;;;5.63;;
3149;SDS011;32503;47.748;8.960;2023-11-18T00:05:41;5.27;;;4.83;;
3149;SDS011;32503;47.748;8.960;2023-11-18T00:08:09;4.37;;;4.07;;
3149;SDS011;32503;47.748;8.960;2023-11-18T00:10:36;4.87;;;4.47;;
3149;SDS011;32503;47.748;8.960;2023-11-18T00:13:04;5.30;;;3.63;;
3149;SDS011;32503;47.748;8.960;2023-11-18T00:15:31;5.03;;;4.53;;
3149;SDS011;32503;47.748;8.960;2023-11-18T00:18:01;4.00;;;2.73;;
3149;SDS011;32503;47.748;8.960;2023-11-18T00:20:28;5.90;;;5.40;;
3149;SDS011;32503;47.748;8.960;2023-11-18T00:22:56;5.00;;;4.60;;
3149;SDS011;32503;47.748;8.960;2023-11-18T00:25:24;4.77;;;4.30;;
3149;SDS011;32503;47.748;8.960;2023-11-18T00:27:51;4.40;;;4.10;;
3149;SDS011;32503;47.748;8.960;2023-11-18T00:30:19;4.83;;;4.43;;
3149;SDS011;32503;47.748;8.960;2023-11-18T00:32:47;5.13;;;4.83;;
3149;SDS011;32503;47.748;8.960;2023-11-18T00:35:14;5.60;;;4.73;;
3149;SDS011;32503;47.748;8.960;2023-11-18T00:37:41;5.60;;;5.00;;
3149;SDS011;32503;47.748;8.960;2023-11-18T00:40:09;8.53;;;4.70;;
3149;SDS011;32503;47.748;8.960;2023-11-18T00:42:38;5.07;;;4.57;;
3149;SDS011;32503;47.748;8.960;2023-11-18T00:45:05;5.00;;;4.60;;
3149;SDS011;32503;47.748;8.960;2023-11-18T00:47:33;3.97;;;3.77;;
3149;SDS011;32503;47.748;8.960;2023-11-18T00:50:00;4.90;;;4.40;;
3149;SDS011;32503;47.748;8.960;2023-11-18T00:52:28;4.40;;;4.10;;
3149;SDS011;32503;47.748;8.960;2023-11-18T00:54:55;6.03;;;5.20;;
3149;SDS011;32503;47.748;8.960;2023-11-18T00:57:22;13.70;;;9.37;;
3149;SDS011;32503;47.748;8.960;2023-11-18T00:59:50;9.83;;;8.20;;
3149;SDS011;32503;47.748;8.960;2023-11-18T01:02:17;10.50;;;8.43;;
3149;SDS011;32503;47.748;8.960;2023-11-18T01:04:44;7.23;;;6.50;;
3149;SDS011;32503;47.748;8.960;2023-11-18T01:07:12;5.87;;;5.37;;
3149;SDS011;32503;47.748;8.960;2023-11-18T01:09:39;4.67;;;4.37;;
3149;SDS011;32503;47.748;8.960;2023-11-18T01:12:06;4.80;;;4.50;;
3149;SDS011;32503;47.748;8.960;2023-11-18T01:14:35;4.40;;;4.00;;
3149;SDS011;32503;47.748;8.960;2023-11-18T01:17:05;5.17;;;4.77;;
3149;SDS011;32503;47.748;8.960;2023-11-18T01:19:32;5.40;;;4.90;;
3149;SDS011;32503;47.748;8.960;2023-11-18T01:21:59;4.37;;;4.07;;
3149;SDS011;32503;47.748;8.960;2023-11-18T01:24:30;4.90;;;4.50;;
3149;SDS011;32503;47.748;8.960;2023-11-18T01:26:57;4.60;;;4.20;;
3149;SDS011;32503;47.748;8.960;2023-11-18T01:29:25;5.27;;;4.83;;
3149;SDS011;32503;47.748;8.960;2023-11-18T01:31:52;5.77;;;5.17;;
3149;SDS011;32503;47.748;8.960;2023-11-18T01:34:21;4.90;;;4.50;;
3149;SDS011;32503;47.748;8.960;2023-11-18T01:36:49;5.47;;;4.97;;
3149;SDS011;32503;47.748;8.960;2023-11-18T01:39:16;5.17;;;4.87;;
3149;SDS011;32503;47.748;8.960;2023-11-18T01:41:43;5.13;;;4.73;;
3149;SDS011;32503;47.748;8.960;2023-11-18T01:44:11;5.93;;;5.07;;
3149;SDS011;32503;47.748;8.960;2023-11-18T01:46:39;5.30;;;4.60;;
3149;SDS011;32503;47.748;8.960;2023-11-18T01:49:10;4.87;;;4.40;;
3149;SDS011;32503;47.748;8.960;2023-11-18T01:51:40;8.20;;;5.67;;
3149;SDS011;32503;47.748;8.960;2023-11-18T01:54:07;4.53;;;4.23;;
3149;SDS011;32503;47.748;8.960;2023-11-18T01:56:38;5.90;;;4.70;;
3149;SDS011;32503;47.748;8.960;2023-11-18T01:59:05;4.80;;;4.50;;
3149;SDS011;32503;47.748;8.960;2023-11-18T02:01:35;4.40;;;4.00;;
3149;SDS011;32503;47.748;8.960;2023-11-18T02:04:04;4.80;;;4.40;;
3149;SDS011;32503;47.748;8.960;2023-11-18T02:06:32;6.10;;;5.30;;
3149;SDS011;32503;47.748;8.960;2023-11-18T02:09:02;5.13;;;4.73;;
3149;SDS011;32503;47.748;8.960;2023-11-18T02:11:31;4.40;;;4.00;;
3149;SDS011;32503;47.748;8.960;2023-11-18T02:14:06;5.23;;;4.70;;
3149;SDS011;32503;47.748;8.960;2023-11-18T02:16:41;5.13;;;4.67;;
3149;SDS011;32503;47.748;8.960;2023-11-18T02:19:19;5.47;;;4.20;;
3149;SDS011;32503;47.748;8.960;2023-11-18T02:21:47;4.63;;;4.23;;
3149;SDS011;32503;47.748;8.960;2023-11-18T02:27:04;3.43;;;3.23;;
3149;SDS011;32503;47.748;8.960;2023-11-18T02:29:32;4.57;;;4.27;;
3149;SDS011;32503;47.748;8.960;2023-11-18T02:32:04;4.57;;;4.17;;
3149;SDS011;32503;47.748;8.960;2023-11-18T02:34:49;4.40;;;4.10;;
3149;SDS011;32503;47.748;8.960;2023-11-18T02:37:30;6.40;;;4.70;;
3149;SDS011;32503;47.748;8.960;2023-11-18T02:40:00;4.73;;;4.33;;
3149;SDS011;32503;47.748;8.960;2023-11-18T02:42:35;5.93;;;5.30;;
3149;SDS011;32503;47.748;8.960;2023-11-18T02:45:04;6.60;;;5.60;;
3149;SDS011;32503;47.748;8.960;2023-11-18T02:47:33;5.63;;;5.20;;
3149;SDS011;32503;47.748;8.960;2023-11-18T02:50:00;9.53;;;6.23;;
3149;SDS011;32503;47.748;8.960;2023-11-18T02:52:36;8.17;;;6.60;;
3149;SDS011;32503;47.748;8.960;2023-11-18T02:55:04;7.10;;;6.33;;
3149;SDS011;32503;47.748;8.960;2023-11-18T02:57:33;6.53;;;5.70;;
3149;SDS011;32503;47.748;8.960;2023-11-18T03:00:01;6.27;;;5.07;;
3149;SDS011;32503;47.748;8.960;2023-11-18T03:02:29;6.77;;;6.13;;
3149;SDS011;32503;47.748;8.960;2023-11-18T03:04:56;6.83;;;6.10;;
3149;SDS011;32503;47.748;8.960;2023-11-18T03:07:24;5.80;;;5.33;;
3149;SDS011;32503;47.748;8.960;2023-11-18T03:09:52;6.70;;;5.50;;
3149;SDS011;32503;47.748;8.960;2023-11-18T03:12:21;6.00;;;5.30;;
3149;SDS011;32503;47.748;8.960;2023-11-18T03:14:49;4.70;;;4.30;;
3149;SDS011;32503;47.748;8.960;2023-11-18T03:17:17;5.13;;;4.73;;
3149;SDS011;32503;47.748;8.960;2023-11-18T03:19:45;4.70;;;4.40;;
3149;SDS011;32503;47.748;8.960;2023-11-18T03:22:12;8.97;;;5.43;;
3149;SDS011;32503;47.748;8.960;2023-11-18T03:24:39;4.43;;;4.10;;
3149;SDS011;32503;47.748;8.960;2023-11-18T03:27:07;4.97;;;4.57;;
3149;SDS011;32503;47.748;8.960;2023-11-18T03:29:34;6.07;;;5.47;;
3149;SDS011;32503;47.748;8.960;2023-11-18T03:32:03;7.30;;;5.33;;
3149;SDS011;32503;47.748;8.960;2023-11-18T03:34:31;5.60;;;5.20;;
3149;SDS011;32503;47.748;8.960;2023-11-18T03:36:59;5.27;;;4.93;;
3149;SDS011;32503;47.748;8.960;2023-11-18T03:39:26;5.77;;;5.30;;
3149;SDS011;32503;47.748;8.960;2023-11-18T03:41:53;5.13;;;4.60;;
3149;SDS011;32503;47.748;8.960;2023-11-18T03:44:22;4.30;;;4.00;;
3149;SDS011;32503;47.748;8.960;2023-11-18T03:46:50;4.97;;;4.53;;
3149;SDS011;32503;47.748;8.960;2023-11-18T03:49:18;4.47;;;4.13;;
3149;SDS011;32503;47.748;8.960;2023-11-18T03:51:46;4.97;;;4.57;;
3149;SDS011;32503;47.748;8.960;2023-11-18T03:54:13;5.13;;;4.77;;
3149;SDS011;32503;47.748;8.960;2023-11-18T03:56:40;4.63;;;4.23;;
3149;SDS011;32503;47.748;8.960;2023-11-18T03:59:07;4.33;;;3.93;;
3149;SDS011;32503;47.748;8.960;2023-11-18T04:01:34;5.57;;;5.13;;
3149;SDS011;32503;47.748;8.960;2023-11-18T04:04:01;4.30;;;4.00;;
3149;SDS011;32503;47.748;8.960;2023-11-18T04:06:30;4.80;;;4.40;;
3149;SDS011;32503;47.748;8.960;2023-11-18T04:08:57;4.37;;;3.97;;
3149;SDS011;32503;47.748;8.960;2023-11-18T04:11:24;5.50;;;5.00;;
3149;SDS011;32503;47.748;8.960;2023-11-18T04:13:51;5.13;;;4.63;;
3149;SDS011;32503;47.748;8.960;2023-11-18T04:16:18;5.23;;;4.73;;
3149;SDS011;32503;47.748;8.960;2023-11-18T04:18:45;5.40;;;4.10;;
3149;SDS011;32503;47.748;8.960;2023-11-18T04:21:12;6.00;;;4.40;;
3149;SDS011;32503;47.748;8.960;2023-11-18T04:23:42;5.60;;;5.10;;
3149;SDS011;32503;47.748;8.960;2023-11-18T04:26:11;4.70;;;4.30;;
3149;SDS011;32503;47.748;8.960;2023-11-18T04:28:38;4.97;;;4.57;;
3149;SDS011;32503;47.748;8.960;2023-11-18T04:31:05;5.70;;;4.80;;
3149;SDS011;32503;47.748;8.960;2023-11-18T04:33:32;5.23;;;4.67;;
3149;SDS011;32503;47.748;8.960;2023-11-18T04:35:59;5.13;;;4.63;;
3149;SDS011;32503;47.748;8.960;2023-11-18T04:38:27;4.27;;;3.97;;
3149;SDS011;32503;47.748;8.960;2023-11-18T04:40:57;9.87;;;5.07;;
3149;SDS011;32503;47.748;8.960;2023-11-18T04:43:24;4.40;;;4.00;;
3149;SDS011;32503;47.748;8.960;2023-11-18T04:45:51;5.00;;;4.43;;
3149;SDS011;32503;47.748;8.960;2023-11-18T04:48:19;5.63;;;5.10;;
3149;SDS011;32503;47.748;8.960;2023-11-18T04:50:46;7.03;;;5.13;;
3149;SDS011;32503;47.748;8.960;2023-11-18T04:53:13;4.90;;;4.57;;
3149;SDS011;32503;47.748;8.960;2023-11-18T04:55:41;5.50;;;4.77;;
3149;SDS011;32503;47.748;8.960;2023-11-18T04:58:09;6.93;;;5.47;;
3149;SDS011;32503;47.748;8.960;2023-11-18T05:00:36;5.50;;;5.00;;
3149;SDS011;32503;47.748;8.960;2023-11-18T05:03:03;7.17;;;5.60;;
3149;SDS011;32503;47.748;8.960;2023-11-18T05:05:34;4.60;;;4.20;;
3149;SDS011;32503;47.748;8.960;2023-11-18T05:08:03;6.07;;;5.47;;
3149;SDS011;32503;47.748;8.960;2023-11-18T05:10:31;5.43;;;4.93;;
3149;SDS011;32503;47.748;8.960;2023-11-18T05:12:58;4.40;;;4.20;;
3149;SDS011;32503;47.748;8.960;2023-11-18T05:15:27;7.30;;;4.57;;
3149;SDS011;32503;47.748;8.960;2023-11-18T05:17:54;5.40;;;4.90;;
3149;SDS011;32503;47.748;8.960;2023-11-18T05:20:21;7.03;;;5.03;;
3149;SDS011;32503;47.748;8.960;2023-11-18T05:22:49;5.90;;;5.00;;
3149;SDS011;32503;47.748;8.960;2023-11-18T05:25:16;5.87;;;5.17;;
3149;SDS011;32503;47.748;8.960;2023-11-18T05:27:44;5.37;;;4.87;;
3149;SDS011;32503;47.748;8.960;2023-11-18T05:30:11;5.53;;;5.03;;
3149;SDS011;32503;47.748;8.960;2023-11-18T05:32:40;6.17;;;5.60;;
3149;SDS011;32503;47.748;8.960;2023-11-18T05:35:07;6.10;;;5.00;;
3149;SDS011;32503;47.748;8.960;2023-11-18T05:37:36;7.80;;;5.20;;
3149;SDS011;32503;47.748;8.960;2023-11-18T05:40:06;7.30;;;5.50;;
3149;SDS011;32503;47.748;8.960;2023-11-18T05:42:35;5.33;;;4.80;;
3149;SDS011;32503;47.748;8.960;2023-11-18T05:45:06;7.57;;;5.50;;
3149;SDS011;32503;47.748;8.960;2023-11-18T05:47:43;8.07;;;5.77;;
3149;SDS011;32503;47.748;8.960;2023-11-18T05:50:12;8.93;;;5.73;;
3149;SDS011;32503;47.748;8.960;2023-11-18T05:52:40;6.63;;;5.50;;
3149;SDS011;32503;47.748;8.960;2023-11-18T05:55:08;10.20;;;5.80;;
3149;SDS011;32503;47.748;8.960;2023-11-18T05:57:36;5.50;;;5.00;;
3149;SDS011;32503;47.748;8.960;2023-11-18T06:00:03;6.23;;;5.50;;
3149;SDS011;32503;47.748;8.960;2023-11-18T06:02:34;5.70;;;5.20;;
3149;SDS011;32503;47.748;8.960;2023-11-18T06:05:06;7.53;;;6.23;;
3149;SDS011;32503;47.748;8.960;2023-11-18T06:07:34;8.40;;;6.13;;
3149;SDS011;32503;47.748;8.960;2023-11-18T06:10:01;11.13;;;7.23;;
3149;SDS011;32503;47.748;8.960;2023-11-18T06:12:30;22.13;;;12.57;;
3149;SDS011;32503;47.748;8.960;2023-11-18T06:14:57;13.70;;;11.20;;
3149;SDS011;32503;47.748;8.960;2023-11-18T06:17:25;13.50;;;10.47;;
3149;SDS011;32503;47.748;8.960;2023-11-18T06:19:53;13.60;;;10.33;;
3149;SDS011;32503;47.748;8.960;2023-11-18T06:22:24;10.70;;;6.33;;
3149;SDS011;32503;47.748;8.960;2023-11-18T06:24:51;8.50;;;7.60;;
3149;SDS011;32503;47.748;8.960;2023-11-18T06:27:18;8.83;;;7.07;;
3149;SDS011;32503;47.748;8.960;2023-11-18T06:29:48;11.03;;;6.63;;
3149;SDS011;32503;47.748;8.960;2023-11-18T06:32:19;6.73;;;6.07;;
3149;SDS011;32503;47.748;8.960;2023-11-18T06:34:46;6.43;;;5.83;;
3149;SDS011;32503;47.748;8.960;2023-11-18T06:37:14;8.70;;;7.13;;
3149;SDS011;32503;47.748;8.960;2023-11-18T06:39:43;14.30;;;6.60;;
3149;SDS011;32503;47.748;8.960;2023-11-18T06:42:12;11.10;;;7.10;;
3149;SDS011;32503;47.748;8.960;2023-11-18T06:44:39;7.17;;;5.60;;
3149;SDS011;32503;47.748;8.960;2023-11-18T06:47:06;10.77;;;7.37;;
3149;SDS011;32503;47.748;8.960;2023-11-18T06:49:33;7.20;;;6.10;;
3149;SDS011;32503;47.748;8.960;2023-11-18T06:52:02;9.40;;;6.83;;
3149;SDS011;32503;47.748;8.960;2023-11-18T06:54:30;12.10;;;7.57;;
3149;SDS011;32503;47.748;8.960;2023-11-18T06:56:59;19.97;;;10.17;;
3149;SDS011;32503;47.748;8.960;2023-11-18T06:59:26;28.60;;;12.50;;
3149;SDS011;32503;47.748;8.960;2023-11-18T07:01:53;17.83;;;10.60;;
3149;SDS011;32503;47.748;8.960;2023-11-18T07:04:20;18.93;;;11.60;;
3149;SDS011;32503;47.748;8.960;2023-11-18T07:06:47;11.60;;;8.23;;
3149;SDS011;32503;47.748;8.960;2023-11-18T07:09:16;16.23;;;8.83;;
3149;SDS011;32503;47.748;8.960;2023-11-18T07:11:45;16.30;;;8.10;;
3149;SDS011;32503;47.748;8.960;2023-11-18T07:14:14;8.57;;;7.70;;
3149;SDS011;32503;47.748;8.960;2023-11-18T07:16:42;10.67;;;7.87;;
3149;SDS011;32503;47.748;8.960;2023-11-18T07:19:09;9.97;;;7.10;;
3149;SDS011;32503;47.748;8.960;2023-11-18T07:21:42;10.97;;;7.30;;
3149;SDS011;32503;47.748;8.960;2023-11-18T07:24:09;10.53;;;7.47;;
3149;SDS011;32503;47.748;8.960;2023-11-18T07:26:37;11.60;;;8.00;;
3149;SDS011;32503;47.748;8.960;2023-11-18T07:29:04;16.97;;;9.93;;
3149;SDS011;32503;47.748;8.960;2023-11-18T07:31:34;20.40;;;11.23;;
3149;SDS011;32503;47.748;8.960;2023-11-18T07:34:02;20.30;;;11.17;;
3149;SDS011;32503;47.748;8.960;2023-11-18T07:36:30;19.27;;;10.67;;
3149;SDS011;32503;47.748;8.960;2023-11-18T07:38:58;26.73;;;13.30;;
3149;SDS011;32503;47.748;8.960;2023-11-18T07:41:26;17.20;;;10.77;;
3149;SDS011;32503;47.748;8.960;2023-11-18T07:43:53;9.17;;;6.83;;
3149;SDS011;32503;47.748;8.960;2023-11-18T07:46:21;7.40;;;6.00;;
3149;SDS011;32503;47.748;8.960;2023-11-18T07:48:50;5.97;;;5.40;;
3149;SDS011;32503;47.748;8.960;2023-11-18T07:51:18;5.93;;;5.33;;
3149;SDS011;32503;47.748;8.960;2023-11-18T07:53:46;7.90;;;6.47;;
3149;SDS011;32503;47.748;8.960;2023-11-18T07:56:14;7.90;;;6.40;;
3149;SDS011;32503;47.748;8.960;2023-11-18T07:58:41;6.87;;;6.20;;
3149;SDS011;32503;47.748;8.960;2023-11-18T08:01:10;8.00;;;7.30;;
3149;SDS011;32503;47.748;8.960;2023-11-18T08:03:38;6.57;;;6.07;;
3149;SDS011;32503;47.748;8.960;2023-11-18T08:06:08;6.10;;;5.50;;
3149;SDS011;32503;47.748;8.960;2023-11-18T08:08:38;7.80;;;6.20;;
3149;SDS011;32503;47.748;8.960;2023-11-18T08:11:06;6.57;;;5.87;;
3149;SDS011;32503;47.748;8.960;2023-11-18T08:13:33;7.50;;;6.67;;
3149;SDS011;32503;47.748;8.960;2023-11-18T08:16:00;9.87;;;7.23;;
3149;SDS011;32503;47.748;8.960;2023-11-18T08:18:27;10.67;;;7.70;;
3149;SDS011;32503;47.748;8.960;2023-11-18T08:20:56;13.57;;;9.03;;
3149;SDS011;32503;47.748;8.960;2023-11-18T08:23:26;8.87;;;7.80;;
3149;SDS011;32503;47.748;8.960;2023-11-18T08:25:54;10.70;;;8.17;;
3149;SDS011;32503;47.748;8.960;2023-11-18T08:28:21;13.10;;;9.90;;
3149;SDS011;32503;47.748;8.960;2023-11-18T08:30:48;11.83;;;9.90;;
3149;SDS011;32503;47.748;8.960;2023-11-18T08:33:16;12.77;;;9.13;;
3149;SDS011;32503;47.748;8.960;2023-11-18T08:35:43;12.60;;;10.20;;
3149;SDS011;32503;47.748;8.960;2023-11-18T08:38:11;21.03;;;11.93;;
3149;SDS011;32503;47.748;8.960;2023-11-18T08:40:39;15.53;;;11.17;;
3149;SDS011;32503;47.748;8.960;2023-11-18T08:43:07;13.37;;;10.63;;
3149;SDS011;32503;47.748;8.960;2023-11-18T08:45:36;14.20;;;10.27;;
3149;SDS011;32503;47.748;8.960;2023-11-18T08:48:03;13.30;;;9.57;;
3149;SDS011;32503;47.748;8.960;2023-11-18T08:50:32;13.40;;;10.33;;
3149;SDS011;32503;47.748;8.960;2023-11-18T08:53:01;16.53;;;9.57;;
3149;SDS011;32503;47.748;8.960;2023-11-18T08:55:30;12.27;;;8.70;;
3149;SDS011;32503;47.748;8.960;2023-11-18T08:58:06;10.77;;;8.47;;
3149;SDS011;32503;47.748;8.960;2023-11-18T09:00:44;13.17;;;9.20;;
3149;SDS011;32503;47.748;8.960;2023-11-18T09:03:13;13.53;;;9.30;;
3149;SDS011;32503;47.748;8.960;2023-11-18T09:05:50;12.67;;;8.73;;
3149;SDS011;32503;47.748;8.960;2023-11-18T09:08:29;8.77;;;7.67;;
3149;SDS011;32503;47.748;8.960;2023-11-18T09:11:00;7.63;;;6.83;;
3149;SDS011;32503;47.748;8.960;2023-11-18T09:13:31;6.47;;;5.87;;
3149;SDS011;32503;47.748;8.960;2023-11-18T09:16:00;7.47;;;5.80;;
3149;SDS011;32503;47.748;8.960;2023-11-18T09:18:29;8.50;;;6.20;;
3149;SDS011;32503;47.748;8.960;2023-11-18T09:20:58;6.50;;;5.90;;
3149;SDS011;32503;47.748;8.960;2023-11-18T09:23:26;5.10;;;4.70;;
3149;SDS011;32503;47.748;8.960;2023-11-18T09:25:57;6.57;;;5.93;;
3149;SDS011;32503;47.748;8.960;2023-11-18T09:28:24;10.40;;;6.27;;
3149;SDS011;32503;47.748;8.960;2023-11-18T09:30:55;5.80;;;5.23;;
3149;SDS011;32503;47.748;8.960;2023-11-18T09:33:23;5.17;;;4.73;;
3149;SDS011;32503;47.748;8.960;2023-11-18T09:35:54;5.67;;;5.27;;
3149;SDS011;32503;47.748;8.960;2023-11-18T09:38:25;8.37;;;5.80;;
3149;SDS011;32503;47.748;8.960;2023-11-18T09:40:56;9.03;;;5.90;;
3149;SDS011;32503;47.748;8.960;2023-11-18T09:43:28;8.57;;;5.10;;
3149;SDS011;32503;47.748;8.960;2023-11-18T09:46:01;6.73;;;6.13;;
3149;SDS011;32503;47.748;8.960;2023-11-18T09:48:38;5.87;;;5.27;;
3149;SDS011;32503;47.748;8.960;2023-11-18T09:51:19;6.30;;;5.70;;
3149;SDS011;32503;47.748;8.960;2023-11-18T09:53:49;7.57;;;5.17;;
3149;SDS011;32503;47.748;8.960;2023-11-18T09:56:19;7.70;;;5.33;;
3149;SDS011;32503;47.748;8.960;2023-11-18T09:59:05;8.33;;;6.40;;
3149;SDS011;32503;47.748;8.960;2023-11-18T10:01:42;6.10;;;5.60;;
3149;SDS011;32503;47.748;8.960;2023-11-18T10:04:11;8.10;;;6.30;;
3149;SDS011;32503;47.748;8.960;2023-11-18T10:06:43;5.70;;;5.20;;
3149;SDS011;32503;47.748;8.960;2023-11-18T10:09:15;6.60;;;5.87;;
3149;SDS011;32503;47.748;8.960;2023-11-18T10:11:44;5.83;;;5.23;;
3149;SDS011;32503;47.748;8.960;2023-11-18T10:14:14;7.47;;;6.50;;
3149;SDS011;32503;47.748;8.960;2023-11-18T10:16:43;7.23;;;6.43;;
3149;SDS011;32503;47.748;8.960;2023-11-18T10:19:12;5.77;;;5.17;;
3149;SDS011;32503;47.748;8.960;2023-11-18T10:21:42;5.73;;;5.10;;
3149;SDS011;32503;47.748;8.960;2023-11-18T10:24:14;5.50;;;5.20;;
3149;SDS011;32503;47.748;8.960;2023-11-18T10:26:44;5.33;;;4.93;;
3149;SDS011;32503;47.748;8.960;2023-11-18T10:29:20;7.93;;;5.23;;
3149;SDS011;32503;47.748;8.960;2023-11-18T10:31:50;4.73;;;4.43;;
3149;SDS011;32503;47.748;8.960;2023-11-18T10:34:28;5.40;;;4.90;;
3149;SDS011;32503;47.748;8.960;2023-11-18T10:36:59;6.77;;;5.40;;
3149;SDS011;32503;47.748;8.960;2023-11-18T10:39:31;6.60;;;5.83;;
3149;SDS011;32503;47.748;8.960;2023-11-18T10:42:00;7.37;;;6.00;;
3149;SDS011;32503;47.748;8.960;2023-11-18T10:44:28;6.60;;;5.60;;
3149;SDS011;32503;47.748;8.960;2023-11-18T10:46:56;6.43;;;5.77;;
3149;SDS011;32503;47.748;8.960;2023-11-18T10:49:24;5.60;;;5.10;;
3149;SDS011;32503;47.748;8.960;2023-11-18T10:51:53;7.03;;;6.40;;
3149;SDS011;32503;47.748;8.960;2023-11-18T10:54:22;6.70;;;6.10;;
3149;SDS011;32503;47.748;8.960;2023-11-18T10:56:51;8.33;;;7.43;;
3149;SDS011;32503;47.748;8.960;2023-11-18T10:59:21;5.47;;;5.07;;
3149;SDS011;32503;47.748;8.960;2023-11-18T11:01:48;5.57;;;5.10;;
3149;SDS011;32503;47.748;8.960;2023-11-18T11:04:17;5.77;;;5.37;;
3149;SDS011;32503;47.748;8.960;2023-11-18T11:06:46;6.43;;;5.60;;
3149;SDS011;32503;47.748;8.960;2023-11-18T11:09:18;5.27;;;4.77;;
3149;SDS011;32503;47.748;8.960;2023-11-18T11:11:50;8.93;;;4.70;;
3149;SDS011;32503;47.748;8.960;2023-11-18T11:14:24;5.63;;;5.20;;
3149;SDS011;32503;47.748;8.960;2023-11-18T11:17:00;4.80;;;4.40;;
3149;SDS011;32503;47.748;8.960;2023-11-18T11:19:41;4.70;;;4.37;;
3149;SDS011;32503;47.748;8.960;2023-11-18T11:22:21;6.40;;;4.37;;
3149;SDS011;32503;47.748;8.960;2023-11-18T11:24:59;4.97;;;4.67;;
3149;SDS011;32503;47.748;8.960;2023-11-18T11:27:38;5.07;;;4.60;;
3149;SDS011;32503;47.748;8.960;2023-11-18T11:30:20;5.23;;;4.83;;
3149;SDS011;32503;47.748;8.960;2023-11-18T11:32:50;4.93;;;4.50;;
3149;SDS011;32503;47.748;8.960;2023-11-18T11:35:23;4.57;;;4.27;;
3149;SDS011;32503;47.748;8.960;2023-11-18T11:37:56;4.40;;;4.10;;
3149;SDS011;32503;47.748;8.960;2023-11-18T11:40:29;5.73;;;5.20;;
3149;SDS011;32503;47.748;8.960;2023-11-18T11:42:57;4.97;;;4.57;;
3149;SDS011;32503;47.748;8.960;2023-11-18T11:45:29;7.03;;;5.90;;
3149;SDS011;32503;47.748;8.960;2023-11-18T11:47:57;5.43;;;4.93;;
3149;SDS011;32503;47.748;8.960;2023-11-18T11:50:44;8.70;;;7.80;;
3149;SDS011;32503;47.748;8.960;2023-11-18T11:53:39;7.87;;;7.20;;
3149;SDS011;32503;47.748;8.960;2023-11-18T11:56:13;6.03;;;5.63;;
3149;SDS011;32503;47.748;8.960;2023-11-18T11:58:46;5.63;;;5.13;;
3149;SDS011;32503;47.748;8.960;2023-11-18T12:01:21;5.00;;;4.70;;
3149;SDS011;32503;47.748;8.960;2023-11-18T12:03:56;5.50;;;5.10;;
3149;SDS011;32503;47.748;8.960;2023-11-18T12:06:25;5.17;;;4.50;;
3149;SDS011;32503;47.748;8.960;2023-11-18T12:08:53;8.07;;;4.90;;
3149;SDS011;32503;47.748;8.960;2023-11-18T12:11:22;6.20;;;5.23;;
3149;SDS011;32503;47.748;8.960;2023-11-18T12:17:00;4.30;;;4.00;;
3149;SDS011;32503;47.748;8.960;2023-11-18T12:19:37;5.63;;;4.77;;
3149;SDS011;32503;47.748;8.960;2023-11-18T12:22:13;4.77;;;4.50;;
3149;SDS011;32503;47.748;8.960;2023-11-18T12:27:58;5.47;;;4.93;;
3149;SDS011;32503;47.748;8.960;2023-11-18T12:30:40;6.40;;;4.87;;
3149;SDS011;32503;47.748;8.960;2023-11-18T12:33:59;9.33;;;6.43;;
3149;SDS011;32503;47.748;8.960;2023-11-18T12:36:40;6.10;;;5.70;;
3149;SDS011;32503;47.748;8.960;2023-11-18T12:42:59;6.10;;;5.67;;
3149;SDS011;32503;47.748;8.960;2023-11-18T12:45:44;5.83;;;5.43;;
3149;SDS011;32503;47.748;8.960;2023-11-18T12:49:02;6.90;;;5.20;;
3149;SDS011;32503;47.748;8.960;2023-11-18T12:51:30;5.23;;;4.83;;
3149;SDS011;32503;47.748;8.960;2023-11-18T12:54:02;5.43;;;5.03;;
3149;SDS011;32503;47.748;8.960;2023-11-18T12:56:32;5.87;;;5.37;;
3149;SDS011;32503;47.748;8.960;2023-11-18T12:59:00;5.87;;;5.27;;
3149;SDS011;32503;47.748;8.960;2023-11-18T13:01:31;6.83;;;5.80;;
3149;SDS011;32503;47.748;8.960;2023-11-18T13:04:01;6.37;;;5.23;;
3149;SDS011;32503;47.748;8.960;2023-11-18T13:06:28;6.90;;;6.20;;
3149;SDS011;32503;47.748;8.960;2023-11-18T13:08:55;6.60;;;5.67;;
3149;SDS011;32503;47.748;8.960;2023-11-18T13:11:23;5.97;;;5.40;;
3149;SDS011;32503;47.748;8.960;2023-11-18T13:13:51;5.50;;;4.97;;
3149;SDS011;32503;47.748;8.960;2023-11-18T13:16:19;7.97;;;6.17;;
3149;SDS011;32503;47.748;8.960;2023-11-18T13:18:47;6.07;;;5.47;;
3149;SDS011;32503;47.748;8.960;2023-11-18T13:21:15;7.43;;;6.17;;
3149;SDS011;32503;47.748;8.960;2023-11-18T13:23:47;6.20;;;5.60;;
3149;SDS011;32503;47.748;8.960;2023-11-18T13:26:17;7.23;;;6.47;;
3149;SDS011;32503;47.748;8.960;2023-11-18T13:28:46;6.63;;;5.67;;
3149;SDS011;32503;47.748;8.960;2023-11-18T13:31:14;8.30;;;5.30;;
3149;SDS011;32503;47.748;8.960;2023-11-18T13:33:43;6.37;;;5.77;;
3149;SDS011;32503;47.748;8.960;2023-11-18T13:36:13;7.23;;;6.50;;
3149;SDS011;32503;47.748;8.960;2023-11-18T13:38:41;10.70;;;6.93;;
3149;SDS011;32503;47.748;8.960;2023-11-18T13:41:09;7.90;;;7.10;;
3149;SDS011;32503;47.748;8.960;2023-11-18T13:43:41;6.37;;;5.80;;
3149;SDS011;32503;47.748;8.960;2023-11-18T13:46:10;7.00;;;6.30;;
3149;SDS011;32503;47.748;8.960;2023-11-18T13:48:38;7.40;;;6.50;;
3149;SDS011;32503;47.748;8.960;2023-11-18T13:51:08;7.80;;;7.00;;
3149;SDS011;32503;47.748;8.960;2023-11-18T13:53:39;9.20;;;7.10;;
3149;SDS011;32503;47.748;8.960;2023-11-18T13:56:08;7.07;;;6.40;;
3149;SDS011;32503;47.748;8.960;2023-11-18T13:58:39;7.23;;;6.63;;
3149;SDS011;32503;47.748;8.960;2023-11-18T14:01:10;8.77;;;7.73;;
3149;SDS011;32503;47.748;8.960;2023-11-18T14:03:39;7.60;;;6.90;;
3149;SDS011;32503;47.748;8.960;2023-11-18T14:06:10;7.60;;;6.90;;
3149;SDS011;32503;47.748;8.960;2023-11-18T14:08:37;8.63;;;7.87;;
3149;SDS011;32503;47.748;8.960;2023-11-18T14:11:06;8.23;;;7.37;;
3149;SDS011;32503;47.748;8.960;2023-11-18T14:13:34;8.03;;;7.30;;
3149;SDS011;32503;47.748;8.960;2023-11-18T14:16:02;8.20;;;7.50;;
3149;SDS011;32503;47.748;8.960;2023-11-18T14:18:34;7.47;;;6.53;;
3149;SDS011;32503;47.748;8.960;2023-11-18T14:21:02;7.90;;;6.87;;
3149;SDS011;32503;47.748;8.960;2023-11-18T14:23:32;7.93;;;7.23;;
3149;SDS011;32503;47.748;8.960;2023-11-18T14:25:59;7.30;;;6.57;;
3149;SDS011;32503;47.748;8.960;2023-11-18T14:28:26;9.70;;;6.67;;
3149;SDS011;32503;47.748;8.960;2023-11-18T14:30:54;8.00;;;7.20;;
3149;SDS011;32503;47.748;8.960;2023-11-18T14:33:21;8.20;;;7.40;;
3149;SDS011;32503;47.748;8.960;2023-11-18T14:35:48;8.63;;;7.60;;
3149;SDS011;32503;47.748;8.960;2023-11-18T14:38:15;8.37;;;7.30;;
3149;SDS011;32503;47.748;8.960;2023-11-18T14:40:45;8.70;;;7.63;;
3149;SDS011;32503;47.748;8.960;2023-11-18T14:43:13;12.47;;;7.70;;
3149;SDS011;32503;47.748;8.960;2023-11-18T14:45:41;8.10;;;7.27;;
3149;SDS011;32503;47.748;8.960;2023-11-18T14:48:08;9.13;;;7.50;;
3149;SDS011;32503;47.748;8.960;2023-11-18T14:50:35;12.83;;;10.10;;
3149;SDS011;32503;47.748;8.960;2023-11-18T14:53:03;13.23;;;10.07;;
3149;SDS011;32503;47.748;8.960;2023-11-18T14:55:31;8.70;;;7.23;;
3149;SDS011;32503;47.748;8.960;2023-11-18T14:58:00;14.00;;;8.60;;
3149;SDS011;32503;47.748;8.960;2023-11-18T15:00:29;8.50;;;7.70;;
3149;SDS011;32503;47.748;8.960;2023-11-18T15:02:57;8.03;;;7.30;;
3149;SDS011;32503;47.748;8.960;2023-11-18T15:05:25;9.80;;;8.57;;
3149;SDS011;32503;47.748;8.960;2023-11-18T15:07:52;8.43;;;7.63;;
3149;SDS011;32503;47.748;8.960;2023-11-18T15:10:21;7.47;;;6.97;;
3149;SDS011;32503;47.748;8.960;2023-11-18T15:12:50;8.70;;;7.90;;
3149;SDS011;32503;47.748;8.960;2023-11-18T15:15:21;8.90;;;8.00;;
3149;SDS011;32503;47.748;8.960;2023-11-18T15:17:56;10.83;;;7.77;;
3149;SDS011;32503;47.748;8.960;2023-11-18T15:20:24;8.07;;;7.20;;
3149;SDS011;32503;47.748;8.960;2023-11-18T15:22:51;8.53;;;7.73;;
3149;SDS011;32503;47.748;8.960;2023-11-18T15:25:19;9.87;;;8.60;;